sensor_id;sensor_type;location;lat;lon;timestamp;pressure;altitude;pressure_sealevel;temperature;humidity
65897;BME280;52677;50.898;10.854;2023-11-19T00:01:53;98129.34;;;4.73;100.00
65897;BME280;52677;50.898;10.854;2023-11-19T00:03:53;98123.50;;;4.74;100.00
65897;BME280;52677;50.898;10.854;2023-11-19T00:05:54;98129.06;;;4.78;100.00
65897;BME280;52677;50.898;10.854;2023-11-19T00:07:54;98120.84;;;4.78;100.00
65897;BME280;52677;50.898;10.854;2023-11-19T00:09:55;98125.75;;;4.85;100.00
65897;BME280;52677;50.898;10.854;2023-11-19T00:11:55;98117.97;;;4.87;100.00
65897;BME280;52677;50.898;10.854;2023-11-19T00:13:55;98120.25;;;4.85;100.00
65897;BME280;52677;50.898;10.854;2023-11-19T00:15:56;98115.13;;;4.83;100.00
65897;BME280;52677;50.898;10.854;2023-11-19T00:17:57;98096.66;;;4.80;100.00
65897;BME280;52677;50.898;10.854;2023-11-19T00:19:57;98084.97;;;4.83;100.00
65897;BME280;52677;50.898;10.854;2023-11-19T00:21:58;98086.06;;;4.94;100.00
65897;BME280;52677;50.898;10.854;2023-11-19T00:24:02;98076.69;;;4.95;100.00
65897;BME280;52677;50.898;10.854;2023-11-19T00:26:04;98080.94;;;4.93;100.00
65897;BME280;52677;50.898;10.854;2023-11-19T00:28:06;98075.88;;;4.95;100.00
65897;BME280;52677;50.898;10.854;2023-11-19T00:30:06;98078.19;;;4.93;100.00
65897;BME280;52677;50.898;10.854;2023-11-19T00:32:08;98067.13;;;4.89;100.00
65897;BME280;52677;50.898;10.854;2023-11-19T00:34:08;98066.66;;;4.87;100.00
65897;BME280;52677;50.898;10.854;2023-11-19T00:36:09;98051.72;;;4.85;100.00
65897;BME280;52677;50.898;10.854;2023-11-19T00:38:09;98042.72;;;4.84;100.00
65897;BME280;52677;50.898;10.854;2023-11-19T00:40:10;98053.66;;;4.84;100.00
65897;BME280;52677;50.898;10.854;2023-11-19T00:42:10;98056.78;;;4.83;100.00
65897;BME280;52677;50.898;10.854;2023-11-19T00:44:11;98050.06;;;4.80;100.00
65897;BME280;52677;50.898;10.854;2023-11-19T00:46:11;98058.28;;;4.80;100.00
65897;BME280;52677;50.898;10.854;2023-11-19T00:48:11;98053.59;;;4.81;100.00
65897;BME280;52677;50.898;10.854;2023-11-19T00:50:13;98045.81;;;4.83;100.00
65897;BME280;52677;50.898;10.854;2023-11-19T00:52:13;98052.88;;;4.84;100.00
65897;BME280;52677;50.898;10.854;2023-11-19T00:54:13;98038.72;;;4.82;100.00
65897;BME280;52677;50.898;10.854;2023-11-19T00:56:14;98034.03;;;4.82;100.00
65897;BME280;52677;50.898;10.854;2023-11-19T00:58:14;98038.38;;;4.83;100.00
65897;BME280;52677;50.898;10.854;2023-11-19T01:00:15;98035.63;;;4.83;100.00
65897;BME280;52677;50.898;10.854;2023-11-19T01:02:18;98019.28;;;4.87;100.00
65897;BME280;52677;50.898;10.854;2023-11-19T01:04:18;98021.22;;;4.86;100.00
65897;BME280;52677;50.898;10.854;2023-11-19T01:06:31;98020.88;;;4.88;100.00
65897;BME280;52677;50.898;10.854;2023-11-19T01:08:31;98019.75;;;4.89;100.00
65897;BME280;52677;50.898;10.854;2023-11-19T01:10:32;98024.75;;;4.87;100.00
65897;BME280;52677;50.898;10.854;2023-11-19T01:12:32;98025.53;;;4.87;100.00
65897;BME280;52677;50.898;10.854;2023-11-19T01:14:33;98022.38;;;4.85;100.00
65897;BME280;52677;50.898;10.854;2023-11-19T01:16:33;98019.28;;;4.87;100.00
65897;BME280;52677;50.898;10.854;2023-11-19T01:18:33;97999.28;;;4.86;100.00
65897;BME280;52677;50.898;10.854;2023-11-19T01:20:34;97994.00;;;4.93;100.00
65897;BME280;52677;50.898;10.854;2023-11-19T01:22:34;97989.75;;;4.96;100.00
65897;BME280;52677;50.898;10.854;2023-11-19T01:24:35;97987.28;;;5.06;100.00
65897;BME280;52677;50.898;10.854;2023-11-19T01:26:35;98001.63;;;5.16;100.00
65897;BME280;52677;50.898;10.854;2023-11-19T01:28:36;98001.00;;;5.22;100.00
65897;BME280;52677;50.898;10.854;2023-11-19T01:30:37;97988.97;;;5.27;100.00
65897;BME280;52677;50.898;10.854;2023-11-19T01:32:37;97990.13;;;5.26;100.00
65897;BME280;52677;50.898;10.854;2023-11-19T01:34:37;97987.00;;;5.27;100.00
65897;BME280;52677;50.898;10.854;2023-11-19T01:36:38;97983.28;;;5.35;100.00
65897;BME280;52677;50.898;10.854;2023-11-19T01:38:39;97974.38;;;5.39;100.00
65897;BME280;52677;50.898;10.854;2023-11-19T01:40:39;97968.41;;;5.36;100.00
65897;BME280;52677;50.898;10.854;2023-11-19T01:42:40;97961.09;;;5.41;100.00
65897;BME280;52677;50.898;10.854;2023-11-19T01:44:41;97955.75;;;5.48;100.00
65897;BME280;52677;50.898;10.854;2023-11-19T01:46:44;97956.78;;;5.59;100.00
65897;BME280;52677;50.898;10.854;2023-11-19T01:48:47;97955.00;;;5.67;100.00
65897;BME280;52677;50.898;10.854;2023-11-19T01:50:47;97941.00;;;5.72;100.00
65897;BME280;52677;50.898;10.854;2023-11-19T01:52:48;97930.53;;;5.77;100.00
65897;BME280;52677;50.898;10.854;2023-11-19T01:54:49;97934.06;;;5.78;100.00
65897;BME280;52677;50.898;10.854;2023-11-19T01:56:50;97923.88;;;5.78;100.00
65897;BME280;52677;50.898;10.854;2023-11-19T01:58:54;97913.41;;;5.84;100.00
65897;BME280;52677;50.898;10.854;2023-11-19T02:00:57;97917.31;;;5.83;100.00
65897;BME280;52677;50.898;10.854;2023-11-19T02:02:57;97913.41;;;5.84;100.00
65897;BME280;52677;50.898;10.854;2023-11-19T02:04:58;97899.31;;;5.85;100.00
65897;BME280;52677;50.898;10.854;2023-11-19T02:06:58;97893.91;;;5.89;100.00
65897;BME280;52677;50.898;10.854;2023-11-19T02:08:59;97884.69;;;5.97;100.00
65897;BME280;52677;50.898;10.854;2023-11-19T02:10:59;97884.91;;;6.08;100.00
65897;BME280;52677;50.898;10.854;2023-11-19T02:13:01;97894.38;;;6.10;100.00
65897;BME280;52677;50.898;10.854;2023-11-19T02:15:02;97900.78;;;6.18;100.00
65897;BME280;52677;50.898;10.854;2023-11-19T02:17:04;97891.47;;;6.23;100.00
65897;BME280;52677;50.898;10.854;2023-11-19T02:19:04;97891.47;;;6.23;100.00
65897;BME280;52677;50.898;10.854;2023-11-19T02:21:06;97881.69;;;6.25;100.00
65897;BME280;52677;50.898;10.854;2023-11-19T02:23:06;97872.28;;;6.26;100.00
65897;BME280;52677;50.898;10.854;2023-11-19T02:25:08;97852.53;;;6.40;100.00
65897;BME280;52677;50.898;10.854;2023-11-19T02:27:30;97850.16;;;6.38;100.00
65897;BME280;52677;50.898;10.854;2023-11-19T02:29:33;97860.91;;;6.47;100.00
65897;BME280;52677;50.898;10.854;2023-11-19T02:31:35;97853.34;;;6.40;100.00
65897;BME280;52677;50.898;10.854;2023-11-19T02:33:37;97851.88;;;6.46;100.00
65897;BME280;52677;50.898;10.854;2023-11-19T02:35:37;97860.19;;;6.50;100.00
65897;BME280;52677;50.898;10.854;2023-11-19T02:37:38;97865.00;;;6.57;100.00
65897;BME280;52677;50.898;10.854;2023-11-19T02:39:39;97863.72;;;6.51;100.00
65897;BME280;52677;50.898;10.854;2023-11-19T02:41:39;97871.59;;;6.52;100.00
65897;BME280;52677;50.898;10.854;2023-11-19T02:43:39;97868.47;;;6.54;100.00
65897;BME280;52677;50.898;10.854;2023-11-19T02:45:40;97879.13;;;6.55;100.00
65897;BME280;52677;50.898;10.854;2023-11-19T02:47:41;97877.53;;;6.54;100.00
65897;BME280;52677;50.898;10.854;2023-11-19T02:49:42;97863.78;;;6.54;100.00
65897;BME280;52677;50.898;10.854;2023-11-19T02:51:44;97859.88;;;6.55;100.00
65897;BME280;52677;50.898;10.854;2023-11-19T02:53:45;97850.59;;;6.63;100.00
65897;BME280;52677;50.898;10.854;2023-11-19T02:55:48;97848.25;;;6.65;100.00
65897;BME280;52677;50.898;10.854;2023-11-19T02:57:51;97831.28;;;6.60;100.00
65897;BME280;52677;50.898;10.854;2023-11-19T02:59:53;97837.53;;;6.57;100.00
65897;BME280;52677;50.898;10.854;2023-11-19T03:01:57;97838.69;;;6.56;100.00
65897;BME280;52677;50.898;10.854;2023-11-19T03:03:57;97839.47;;;6.56;100.00
65897;BME280;52677;50.898;10.854;2023-11-19T03:05:58;97822.63;;;6.58;100.00
65897;BME280;52677;50.898;10.854;2023-11-19T03:07:58;97830.81;;;6.54;100.00
65897;BME280;52677;50.898;10.854;2023-11-19T03:09:59;97841.34;;;6.52;100.00
65897;BME280;52677;50.898;10.854;2023-11-19T03:11:59;97845.03;;;6.60;100.00
65897;BME280;52677;50.898;10.854;2023-11-19T03:13:59;97836.78;;;6.60;100.00
65897;BME280;52677;50.898;10.854;2023-11-19T03:16:00;97832.44;;;6.59;100.00
65897;BME280;52677;50.898;10.854;2023-11-19T03:18:00;97836.41;;;6.61;100.00
65897;BME280;52677;50.898;10.854;2023-11-19T03:20:00;97832.25;;;6.71;100.00
65897;BME280;52677;50.898;10.854;2023-11-19T03:22:01;97820.56;;;6.78;100.00
65897;BME280;52677;50.898;10.854;2023-11-19T03:24:02;97825.97;;;6.70;100.00
65897;BME280;52677;50.898;10.854;2023-11-19T03:26:03;97818.53;;;6.71;100.00
65897;BME280;52677;50.898;10.854;2023-11-19T03:28:05;97830.97;;;6.65;100.00
65897;BME280;52677;50.898;10.854;2023-11-19T03:30:07;97809.09;;;6.72;100.00
65897;BME280;52677;50.898;10.854;2023-11-19T03:32:07;97814.50;;;6.65;100.00
65897;BME280;52677;50.898;10.854;2023-11-19T03:34:08;97814.78;;;6.60;100.00
65897;BME280;52677;50.898;10.854;2023-11-19T03:36:08;97822.25;;;6.59;100.00
65897;BME280;52677;50.898;10.854;2023-11-19T03:38:09;97813.88;;;6.52;100.00
65897;BME280;52677;50.898;10.854;2023-11-19T03:40:10;97813.44;;;6.50;100.00
65897;BME280;52677;50.898;10.854;2023-11-19T03:42:11;97822.56;;;6.54;100.00
65897;BME280;52677;50.898;10.854;2023-11-19T03:44:13;97813.09;;;6.52;100.00
65897;BME280;52677;50.898;10.854;2023-11-19T03:46:18;97821.28;;;6.48;100.00
65897;BME280;52677;50.898;10.854;2023-11-19T03:48:19;97805.59;;;6.48;100.00
65897;BME280;52677;50.898;10.854;2023-11-19T03:50:19;97793.38;;;6.46;100.00
65897;BME280;52677;50.898;10.854;2023-11-19T03:52:20;97805.47;;;6.41;100.00
65897;BME280;52677;50.898;10.854;2023-11-19T03:54:20;97802.28;;;6.39;100.00
65897;BME280;52677;50.898;10.854;2023-11-19T03:56:23;97795.94;;;6.35;100.00
65897;BME280;52677;50.898;10.854;2023-11-19T03:58:23;97780.56;;;6.31;100.00
65897;BME280;52677;50.898;10.854;2023-11-19T04:00:23;97782.56;;;6.34;100.00
65897;BME280;52677;50.898;10.854;2023-11-19T04:02:24;97784.25;;;6.42;100.00
65897;BME280;52677;50.898;10.854;2023-11-19T04:04:28;97782.38;;;6.46;100.00
65897;BME280;52677;50.898;10.854;2023-11-19T04:06:28;97789.75;;;6.42;100.00
65897;BME280;52677;50.898;10.854;2023-11-19T04:08:28;97798.78;;;6.42;100.00
65897;BME280;52677;50.898;10.854;2023-11-19T04:10:29;97805.59;;;6.48;100.00
65897;BME280;52677;50.898;10.854;2023-11-19T04:12:29;97797.84;;;6.54;100.00
65897;BME280;52677;50.898;10.854;2023-11-19T04:14:29;97793.13;;;6.55;100.00
65897;BME280;52677;50.898;10.854;2023-11-19T04:16:30;97790.13;;;6.63;100.00
65897;BME280;52677;50.898;10.854;2023-11-19T04:18:30;97796.44;;;6.67;100.00
65897;BME280;52677;50.898;10.854;2023-11-19T04:20:32;97794.25;;;6.76;100.00
65897;BME280;52677;50.898;10.854;2023-11-19T04:22:32;97792.66;;;6.75;100.00
65897;BME280;52677;50.898;10.854;2023-11-19T04:24:32;97795.38;;;6.72;100.00
65897;BME280;52677;50.898;10.854;2023-11-19T04:26:33;97789.41;;;6.70;100.00
65897;BME280;52677;50.898;10.854;2023-11-19T04:28:34;97794.91;;;6.70;100.00
65897;BME280;52677;50.898;10.854;2023-11-19T04:30:34;97795.66;;;6.67;100.00
65897;BME280;52677;50.898;10.854;2023-11-19T04:32:35;97804.28;;;6.65;100.00
65897;BME280;52677;50.898;10.854;2023-11-19T04:34:35;97800.31;;;6.63;100.00
65897;BME280;52677;50.898;10.854;2023-11-19T04:36:37;97799.84;;;6.57;100.00
65897;BME280;52677;50.898;10.854;2023-11-19T04:38:37;97807.28;;;6.57;100.00
65897;BME280;52677;50.898;10.854;2023-11-19T04:40:41;97787.25;;;6.56;100.00
65897;BME280;52677;50.898;10.854;2023-11-19T04:42:42;97785.31;;;6.57;100.00
65897;BME280;52677;50.898;10.854;2023-11-19T04:44:43;97780.59;;;6.57;100.00
65897;BME280;52677;50.898;10.854;2023-11-19T04:46:44;97789.63;;;6.58;100.00
65897;BME280;52677;50.898;10.854;2023-11-19T04:48:44;97797.50;;;6.59;100.00
65897;BME280;52677;50.898;10.854;2023-11-19T04:50:45;97784.97;;;6.62;100.00
65897;BME280;52677;50.898;10.854;2023-11-19T04:52:45;97780.22;;;6.59;100.00
65897;BME280;52677;50.898;10.854;2023-11-19T04:54:46;97781.81;;;6.60;100.00
65897;BME280;52677;50.898;10.854;2023-11-19T04:56:46;97789.25;;;6.59;100.00
65897;BME280;52677;50.898;10.854;2023-11-19T04:58:47;97785.34;;;6.60;100.00
65897;BME280;52677;50.898;10.854;2023-11-19T05:00:47;97764.47;;;6.56;100.00
65897;BME280;52677;50.898;10.854;2023-11-19T05:02:48;97764.84;;;6.54;100.00
65897;BME280;52677;50.898;10.854;2023-11-19T05:04:48;97754.28;;;6.56;100.00
65897;BME280;52677;50.898;10.854;2023-11-19T05:06:49;97748.41;;;6.58;100.00
65897;BME280;52677;50.898;10.854;2023-11-19T05:08:49;97743.69;;;6.58;100.00
65897;BME280;52677;50.898;10.854;2023-11-19T05:10:49;97731.53;;;6.59;100.00
65897;BME280;52677;50.898;10.854;2023-11-19T05:12:50;97737.91;;;6.63;100.00
65897;BME280;52677;50.898;10.854;2023-11-19T05:14:51;97737.53;;;6.65;100.00
65897;BME280;52677;50.898;10.854;2023-11-19T05:16:52;97730.84;;;6.66;100.00
65897;BME280;52677;50.898;10.854;2023-11-19T05:18:52;97731.28;;;6.68;100.00
65897;BME280;52677;50.898;10.854;2023-11-19T05:20:52;97749.34;;;6.69;100.00
65897;BME280;52677;50.898;10.854;2023-11-19T05:22:53;97748.63;;;6.72;100.00
65897;BME280;52677;50.898;10.854;2023-11-19T05:24:53;97759.25;;;6.73;100.00
65897;BME280;52677;50.898;10.854;2023-11-19T05:26:54;97755.81;;;6.80;100.00
65897;BME280;52677;50.898;10.854;2023-11-19T05:28:54;97765.69;;;6.85;100.00
65897;BME280;52677;50.898;10.854;2023-11-19T05:30:55;97774.72;;;6.85;100.00
65897;BME280;52677;50.898;10.854;2023-11-19T05:32:56;97778.78;;;6.95;100.00
65897;BME280;52677;50.898;10.854;2023-11-19T05:34:56;97785.63;;;7.04;100.00
65897;BME280;52677;50.898;10.854;2023-11-19T05:36:56;97778.72;;;7.18;100.00
65897;BME280;52677;50.898;10.854;2023-11-19T05:38:57;97777.09;;;7.13;100.00
65897;BME280;52677;50.898;10.854;2023-11-19T05:40:58;97779.47;;;7.15;100.00
65897;BME280;52677;50.898;10.854;2023-11-19T05:42:58;97778.63;;;7.11;100.00
65897;BME280;52677;50.898;10.854;2023-11-19T05:44:59;97786.88;;;7.11;100.00
65897;BME280;52677;50.898;10.854;2023-11-19T05:46:59;97786.16;;;7.14;100.00
65897;BME280;52677;50.898;10.854;2023-11-19T05:49:00;97769.75;;;7.21;100.00
65897;BME280;52677;50.898;10.854;2023-11-19T05:51:00;97773.41;;;7.32;100.00
65897;BME280;52677;50.898;10.854;2023-11-19T05:53:00;97774.59;;;7.31;100.00
65897;BME280;52677;50.898;10.854;2023-11-19T05:55:01;97767.44;;;7.26;100.00
65897;BME280;52677;50.898;10.854;2023-11-19T05:57:09;97769.50;;;7.33;100.00
65897;BME280;52677;50.898;10.854;2023-11-19T05:59:09;97769.13;;;7.35;100.00
65897;BME280;52677;50.898;10.854;2023-11-19T06:01:15;97767.63;;;7.41;100.00
65897;BME280;52677;50.898;10.854;2023-11-19T06:03:15;97758.97;;;7.39;100.00
65897;BME280;52677;50.898;10.854;2023-11-19T06:05:15;97765.72;;;7.45;100.00
65897;BME280;52677;50.898;10.854;2023-11-19T06:07:16;97773.56;;;7.43;100.00
65897;BME280;52677;50.898;10.854;2023-11-19T06:09:16;97784.94;;;7.41;100.00
65897;BME280;52677;50.898;10.854;2023-11-19T06:11:18;97763.31;;;7.40;100.00
65897;BME280;52677;50.898;10.854;2023-11-19T06:13:20;97770.38;;;7.41;100.00
65897;BME280;52677;50.898;10.854;2023-11-19T06:15:21;97767.22;;;7.39;100.00
65897;BME280;52677;50.898;10.854;2023-11-19T06:17:22;97760.16;;;7.41;100.00
65897;BME280;52677;50.898;10.854;2023-11-19T06:19:22;97768.00;;;7.39;100.00
65897;BME280;52677;50.898;10.854;2023-11-19T06:21:24;97773.44;;;7.36;100.00
65897;BME280;52677;50.898;10.854;2023-11-19T06:23:25;97780.13;;;7.35;100.00
65897;BME280;52677;50.898;10.854;2023-11-19T06:25:25;97767.91;;;7.32;100.00
65897;BME280;52677;50.898;10.854;2023-11-19T06:27:26;97780.88;;;7.31;100.00
65897;BME280;52677;50.898;10.854;2023-11-19T06:29:26;97772.22;;;7.29;100.00
65897;BME280;52677;50.898;10.854;2023-11-19T06:31:27;97772.22;;;7.29;100.00
65897;BME280;52677;50.898;10.854;2023-11-19T06:33:27;97768.63;;;7.25;100.00
65897;BME280;52677;50.898;10.854;2023-11-19T06:35:28;97766.25;;;7.24;100.00
65897;BME280;52677;50.898;10.854;2023-11-19T06:37:38;97764.75;;;7.30;100.00
65897;BME280;52677;50.898;10.854;2023-11-19T06:39:38;97760.84;;;7.31;100.00
65897;BME280;52677;50.898;10.854;2023-11-19T06:41:39;97771.47;;;7.32;100.00
65897;BME280;52677;50.898;10.854;2023-11-19T06:43:39;97768.72;;;7.32;100.00
65897;BME280;52677;50.898;10.854;2023-11-19T06:45:39;97770.69;;;7.36;100.00
65897;BME280;52677;50.898;10.854;2023-11-19T06:47:40;97767.63;;;7.41;100.00
65897;BME280;52677;50.898;10.854;2023-11-19T06:49:43;97765.34;;;7.46;100.00
65897;BME280;52677;50.898;10.854;2023-11-19T06:51:44;97778.78;;;7.51;100.00
65897;BME280;52677;50.898;10.854;2023-11-19T06:53:46;97765.50;;;7.60;100.00
65897;BME280;52677;50.898;10.854;2023-11-19T06:55:46;97767.97;;;7.69;100.00
65897;BME280;52677;50.898;10.854;2023-11-19T06:57:47;97757.81;;;7.77;100.00
65897;BME280;52677;50.898;10.854;2023-11-19T06:59:47;97749.69;;;7.87;100.00
65897;BME280;52677;50.898;10.854;2023-11-19T07:01:47;97747.38;;;7.93;100.00
65897;BME280;52677;50.898;10.854;2023-11-19T07:03:48;97750.59;;;7.99;100.00
65897;BME280;52677;50.898;10.854;2023-11-19T07:05:48;97761.63;;;8.02;100.00
65897;BME280;52677;50.898;10.854;2023-11-19T07:07:48;97755.31;;;8.02;100.00
65897;BME280;52677;50.898;10.854;2023-11-19T07:09:49;97761.69;;;8.09;100.00
65897;BME280;52677;50.898;10.854;2023-11-19T07:11:50;97761.78;;;8.16;100.00
65897;BME280;52677;50.898;10.854;2023-11-19T07:13:53;97757.91;;;8.25;100.00
65897;BME280;52677;50.898;10.854;2023-11-19T07:15:55;97766.72;;;8.37;100.00
65897;BME280;52677;50.898;10.854;2023-11-19T07:17:56;97757.59;;;8.33;100.00
65897;BME280;52677;50.898;10.854;2023-11-19T07:19:58;97752.94;;;8.37;100.00
65897;BME280;52677;50.898;10.854;2023-11-19T07:22:00;97755.72;;;8.41;100.00
65897;BME280;52677;50.898;10.854;2023-11-19T07:24:00;97738.47;;;8.48;100.00
65897;BME280;52677;50.898;10.854;2023-11-19T07:26:00;97741.22;;;8.48;100.00
65897;BME280;52677;50.898;10.854;2023-11-19T07:28:01;97742.78;;;8.45;100.00
65897;BME280;52677;50.898;10.854;2023-11-19T07:30:07;97746.28;;;8.42;100.00
65897;BME280;52677;50.898;10.854;2023-11-19T07:32:07;97747.44;;;8.37;100.00
65897;BME280;52677;50.898;10.854;2023-11-19T07:34:08;97738.78;;;8.39;100.00
65897;BME280;52677;50.898;10.854;2023-11-19T07:36:09;97754.47;;;8.35;100.00
65897;BME280;52677;50.898;10.854;2023-11-19T07:38:10;97749.69;;;8.28;100.00
65897;BME280;52677;50.898;10.854;2023-11-19T07:40:10;97753.25;;;8.32;100.00
65897;BME280;52677;50.898;10.854;2023-11-19T07:42:11;97757.69;;;8.40;100.00
65897;BME280;52677;50.898;10.854;2023-11-19T07:44:12;97755.44;;;8.53;100.00
65897;BME280;52677;50.898;10.854;2023-11-19T07:46:13;97759.06;;;8.61;100.00
65897;BME280;52677;50.898;10.854;2023-11-19T07:48:14;97757.16;;;8.72;100.00
65897;BME280;52677;50.898;10.854;2023-11-19T07:50:15;97758.06;;;8.87;100.00
65897;BME280;52677;50.898;10.854;2023-11-19T07:52:17;97768.31;;;8.90;100.00
65897;BME280;52677;50.898;10.854;2023-11-19T07:54:17;97756.56;;;9.04;100.00
65897;BME280;52677;50.898;10.854;2023-11-19T07:56:17;97769.28;;;9.19;100.00
65897;BME280;52677;50.898;10.854;2023-11-19T07:58:18;97759.88;;;9.27;100.00
65897;BME280;52677;50.898;10.854;2023-11-19T08:00:18;97774.47;;;9.27;100.00
65897;BME280;52677;50.898;10.854;2023-11-19T08:02:19;97778.81;;;9.32;100.00
65897;BME280;52677;50.898;10.854;2023-11-19T08:04:20;97772.94;;;9.41;100.00
65897;BME280;52677;50.898;10.854;2023-11-19T08:06:20;97787.47;;;9.34;100.00
65897;BME280;52677;50.898;10.854;2023-11-19T08:08:21;97787.47;;;9.31;100.00
65897;BME280;52677;50.898;10.854;2023-11-19T08:10:21;97779.94;;;9.20;100.00
65897;BME280;52677;50.898;10.854;2023-11-19T08:12:22;97774.75;;;9.12;100.00
65897;BME280;52677;50.898;10.854;2023-11-19T08:14:23;97772.41;;;9.14;100.00
65897;BME280;52677;50.898;10.854;2023-11-19T08:16:24;97759.41;;;9.18;100.00
65897;BME280;52677;50.898;10.854;2023-11-19T08:18:24;97751.91;;;9.18;100.00
65897;BME280;52677;50.898;10.854;2023-11-19T08:20:24;97756.72;;;9.28;100.00
65897;BME280;52677;50.898;10.854;2023-11-19T08:22:25;97746.47;;;9.33;100.00
65897;BME280;52677;50.898;10.854;2023-11-19T08:24:25;97744.91;;;9.35;100.00
65897;BME280;52677;50.898;10.854;2023-11-19T08:26:26;97744.53;;;9.37;100.00
65897;BME280;52677;50.898;10.854;2023-11-19T08:28:26;97728.38;;;9.49;100.00
65897;BME280;52677;50.898;10.854;2023-11-19T08:30:27;97736.66;;;9.46;100.00
65897;BME280;52677;50.898;10.854;2023-11-19T08:32:28;97741.81;;;9.47;100.00
65897;BME280;52677;50.898;10.854;2023-11-19T08:34:28;97727.59;;;9.49;100.00
65897;BME280;52677;50.898;10.854;2023-11-19T08:36:28;97739.84;;;9.44;100.00
65897;BME280;52677;50.898;10.854;2023-11-19T08:38:29;97735.50;;;9.47;100.00
65897;BME280;52677;50.898;10.854;2023-11-19T08:40:29;97738.72;;;9.63;100.00
65897;BME280;52677;50.898;10.854;2023-11-19T08:42:30;97731.59;;;9.62;100.00
65897;BME280;52677;50.898;10.854;2023-11-19T08:44:30;97734.75;;;9.64;100.00
65897;BME280;52677;50.898;10.854;2023-11-19T08:46:30;97739.50;;;9.67;100.00
65897;BME280;52677;50.898;10.854;2023-11-19T08:48:31;97736.38;;;9.72;100.00
65897;BME280;52677;50.898;10.854;2023-11-19T08:50:31;97737.19;;;9.76;100.00
65897;BME280;52677;50.898;10.854;2023-11-19T08:52:32;97734.38;;;9.73;100.00
65897;BME280;52677;50.898;10.854;2023-11-19T08:54:32;97735.59;;;9.79;100.00
65897;BME280;52677;50.898;10.854;2023-11-19T08:56:33;97739.16;;;9.83;100.00
65897;BME280;52677;50.898;10.854;2023-11-19T08:58:35;97746.69;;;9.86;100.00
65897;BME280;52677;50.898;10.854;2023-11-19T09:00:35;97747.06;;;9.88;100.00
65897;BME280;52677;50.898;10.854;2023-11-19T09:02:36;97747.84;;;9.85;100.00
65897;BME280;52677;50.898;10.854;2023-11-19T09:04:37;97766.00;;;9.90;100.00
65897;BME280;52677;50.898;10.854;2023-11-19T09:06:37;97769.56;;;9.90;100.00
65897;BME280;52677;50.898;10.854;2023-11-19T09:08:37;97766.44;;;9.95;100.00
65897;BME280;52677;50.898;10.854;2023-11-19T09:10:38;97773.16;;;10.05;100.00
65897;BME280;52677;50.898;10.854;2023-11-19T09:12:38;97785.38;;;10.00;100.00
65897;BME280;52677;50.898;10.854;2023-11-19T09:14:38;97773.56;;;10.10;100.00
65897;BME280;52677;50.898;10.854;2023-11-19T09:16:39;97794.94;;;10.24;100.00
65897;BME280;52677;50.898;10.854;2023-11-19T09:18:39;97800.88;;;10.23;100.00
65897;BME280;52677;50.898;10.854;2023-11-19T09:20:39;97821.41;;;10.25;100.00
65897;BME280;52677;50.898;10.854;2023-11-19T09:22:40;97816.69;;;10.29;100.00
65897;BME280;52677;50.898;10.854;2023-11-19T09:24:40;97819.06;;;10.31;100.00
65897;BME280;52677;50.898;10.854;2023-11-19T09:26:41;97826.19;;;10.39;100.00
65897;BME280;52677;50.898;10.854;2023-11-19T09:28:41;97818.69;;;10.43;100.00
65897;BME280;52677;50.898;10.854;2023-11-19T09:30:42;97814.75;;;10.44;100.00
65897;BME280;52677;50.898;10.854;2023-11-19T09:32:42;97808.41;;;10.44;100.00
65897;BME280;52677;50.898;10.854;2023-11-19T09:34:42;97823.03;;;10.37;100.00
65897;BME280;52677;50.898;10.854;2023-11-19T09:36:43;97811.56;;;10.49;100.00
65897;BME280;52677;50.898;10.854;2023-11-19T09:38:44;97814.34;;;10.53;100.00
65897;BME280;52677;50.898;10.854;2023-11-19T09:40:45;97821.84;;;10.49;100.00
65897;BME280;52677;50.898;10.854;2023-11-19T09:42:45;97829.34;;;10.41;100.00
65897;BME280;52677;50.898;10.854;2023-11-19T09:44:47;97837.25;;;10.50;100.00
65897;BME280;52677;50.898;10.854;2023-11-19T09:46:48;97831.34;;;10.51;100.00
65897;BME280;52677;50.898;10.854;2023-11-19T09:48:49;97836.88;;;10.55;100.00
65897;BME280;52677;50.898;10.854;2023-11-19T09:50:54;97823.84;;;10.52;100.00
65897;BME280;52677;50.898;10.854;2023-11-19T09:52:55;97834.88;;;10.48;100.00
65897;BME280;52677;50.898;10.854;2023-11-19T09:54:55;97826.97;;;10.47;100.00
65897;BME280;52677;50.898;10.854;2023-11-19T09:56:58;97825.81;;;10.55;100.00
65897;BME280;52677;50.898;10.854;2023-11-19T09:59:03;97836.06;;;10.47;100.00
65897;BME280;52677;50.898;10.854;2023-11-19T10:01:05;97838.03;;;10.47;100.00
65897;BME280;52677;50.898;10.854;2023-11-19T10:03:11;97834.91;;;10.52;100.00
65897;BME280;52677;50.898;10.854;2023-11-19T10:05:13;97840.81;;;10.47;100.00
65897;BME280;52677;50.898;10.854;2023-11-19T10:07:14;97838.41;;;10.41;100.00
65897;BME280;52677;50.898;10.854;2023-11-19T10:09:15;97827.38;;;10.34;100.00
65897;BME280;52677;50.898;10.854;2023-11-19T10:11:17;97824.97;;;10.29;100.00
65897;BME280;52677;50.898;10.854;2023-11-19T10:13:17;97833.63;;;10.21;100.00
65897;BME280;52677;50.898;10.854;2023-11-19T10:15:23;97845.09;;;10.23;100.00
65897;BME280;52677;50.898;10.854;2023-11-19T10:17:34;97841.91;;;10.21;100.00
65897;BME280;52677;50.898;10.854;2023-11-19T10:19:34;97835.19;;;10.18;100.00
65897;BME280;52677;50.898;10.854;2023-11-19T10:21:35;97855.75;;;10.24;100.00
65897;BME280;52677;50.898;10.854;2023-11-19T10:23:49;97847.84;;;10.19;100.00
65897;BME280;52677;50.898;10.854;2023-11-19T10:25:52;97834.78;;;10.12;100.00
65897;BME280;52677;50.898;10.854;2023-11-19T10:27:54;97831.59;;;10.07;100.00
65897;BME280;52677;50.898;10.854;2023-11-19T10:29:59;97835.16;;;10.04;100.00
65897;BME280;52677;50.898;10.854;2023-11-19T10:32:00;97835.91;;;10.01;100.00